sensor_id;sensor_type;location;lat;lon;timestamp;P1;durP1;ratioP1;P2;durP2;ratioP2
48987;SDS011;34799;51.440;-2.534;2022-09-20T00:01:15;6.88;;;3.70;;
48987;SDS011;34799;51.440;-2.534;2022-09-20T00:03:47;7.93;;;3.72;;
48987;SDS011;34799;51.440;-2.534;2022-09-20T00:06:20;10.98;;;5.00;;
48987;SDS011;34799;51.440;-2.534;2022-09-20T00:08:49;10.85;;;5.32;;
48987;SDS011;34799;51.440;-2.534;2022-09-20T00:11:22;8.82;;;4.10;;
48987;SDS011;34799;51.440;-2.534;2022-09-20T00:13:52;7.53;;;4.00;;
48987;SDS011;34799;51.440;-2.534;2022-09-20T00:16:25;9.60;;;5.30;;
48987;SDS011;34799;51.440;-2.534;2022-09-20T00:18:56;11.13;;;5.97;;
48987;SDS011;34799;51.440;-2.534;2022-09-20T00:21:25;15.32;;;6.32;;
48987;SDS011;34799;51.440;-2.534;2022-09-20T00:23:55;11.98;;;5.25;;
48987;SDS011;34799;51.440;-2.534;2022-09-20T00:26:23;11.82;;;5.30;;
48987;SDS011;34799;51.440;-2.534;2022-09-20T00:28:51;8.82;;;4.38;;
48987;SDS011;34799;51.440;-2.534;2022-09-20T00:31:19;8.35;;;4.32;;
48987;SDS011;34799;51.440;-2.534;2022-09-20T00:33:47;9.90;;;3.70;;
48987;SDS011;34799;51.440;-2.534;2022-09-20T00:36:32;7.85;;;3.78;;
48987;SDS011;34799;51.440;-2.534;2022-09-20T00:39:00;10.85;;;4.63;;
48987;SDS011;34799;51.440;-2.534;2022-09-20T00:41:29;11.07;;;4.70;;
48987;SDS011;34799;51.440;-2.534;2022-09-20T00:43:58;10.50;;;4.78;;
48987;SDS011;34799;51.440;-2.534;2022-09-20T00:46:39;10.82;;;5.10;;
48987;SDS011;34799;51.440;-2.534;2022-09-20T00:49:18;10.23;;;4.22;;
48987;SDS011;34799;51.440;-2.534;2022-09-20T00:51:51;10.07;;;4.20;;
48987;SDS011;34799;51.440;-2.534;2022-09-20T00:54:23;10.82;;;4.18;;
48987;SDS011;34799;51.440;-2.534;2022-09-20T00:56:51;10.00;;;4.50;;
48987;SDS011;34799;51.440;-2.534;2022-09-20T00:59:23;10.75;;;4.70;;
48987;SDS011;34799;51.440;-2.534;2022-09-20T01:01:59;9.10;;;4.50;;
48987;SDS011;34799;51.440;-2.534;2022-09-20T01:04:31;12.03;;;4.83;;
48987;SDS011;34799;51.440;-2.534;2022-09-20T01:07:01;10.50;;;4.75;;
48987;SDS011;34799;51.440;-2.534;2022-09-20T01:09:31;11.10;;;4.85;;
48987;SDS011;34799;51.440;-2.534;2022-09-20T01:11:58;7.25;;;4.32;;
48987;SDS011;34799;51.440;-2.534;2022-09-20T01:14:29;12.13;;;4.50;;
48987;SDS011;34799;51.440;-2.534;2022-09-20T01:16:56;12.30;;;4.55;;
48987;SDS011;34799;51.440;-2.534;2022-09-20T01:20:31;8.93;;;3.88;;
48987;SDS011;34799;51.440;-2.534;2022-09-20T01:28:18;11.02;;;4.72;;
48987;SDS011;34799;51.440;-2.534;2022-09-20T01:36:08;10.50;;;4.57;;
48987;SDS011;34799;51.440;-2.534;2022-09-20T01:41:47;8.52;;;4.13;;
48987;SDS011;34799;51.440;-2.534;2022-09-20T01:50:16;8.30;;;4.50;;
48987;SDS011;34799;51.440;-2.534;2022-09-20T02:01:56;9.23;;;3.47;;
48987;SDS011;34799;51.440;-2.534;2022-09-20T02:10:18;10.07;;;3.90;;
48987;SDS011;34799;51.440;-2.534;2022-09-20T02:12:59;7.95;;;3.70;;
48987;SDS011;34799;51.440;-2.534;2022-09-20T02:15:47;6.15;;;3.50;;
48987;SDS011;34799;51.440;-2.534;2022-09-20T02:18:46;6.93;;;3.15;;
48987;SDS011;34799;51.440;-2.534;2022-09-20T02:21:37;7.28;;;3.50;;
48987;SDS011;34799;51.440;-2.534;2022-09-20T02:35:44;6.78;;;3.28;;
48987;SDS011;34799;51.440;-2.534;2022-09-20T02:45:01;6.32;;;3.47;;
48987;SDS011;34799;51.440;-2.534;2022-09-20T03:02:08;12.30;;;5.18;;
48987;SDS011;34799;51.440;-2.534;2022-09-20T03:15:56;10.32;;;4.82;;
48987;SDS011;34799;51.440;-2.534;2022-09-20T03:19:03;10.68;;;4.78;;
48987;SDS011;34799;51.440;-2.534;2022-09-20T03:22:01;9.02;;;4.53;;
48987;SDS011;34799;51.440;-2.534;2022-09-20T03:33:15;6.80;;;4.10;;
48987;SDS011;34799;51.440;-2.534;2022-09-20T03:36:00;10.35;;;4.70;;
48987;SDS011;34799;51.440;-2.534;2022-09-20T03:38:52;9.80;;;3.90;;
48987;SDS011;34799;51.440;-2.534;2022-09-20T03:47:21;9.50;;;4.68;;
48987;SDS011;34799;51.440;-2.534;2022-09-20T03:50:14;9.60;;;4.90;;
48987;SDS011;34799;51.440;-2.534;2022-09-20T03:59:05;8.25;;;4.05;;
48987;SDS011;34799;51.440;-2.534;2022-09-20T04:07:16;10.90;;;4.68;;
48987;SDS011;34799;51.440;-2.534;2022-09-20T04:10:00;6.43;;;3.60;;
48987;SDS011;34799;51.440;-2.534;2022-09-20T04:15:37;7.55;;;4.35;;
48987;SDS011;34799;51.440;-2.534;2022-09-20T04:18:29;9.50;;;4.30;;
48987;SDS011;34799;51.440;-2.534;2022-09-20T04:21:12;10.05;;;4.60;;
48987;SDS011;34799;51.440;-2.534;2022-09-20T04:26:35;8.85;;;4.13;;
48987;SDS011;34799;51.440;-2.534;2022-09-20T04:34:17;7.47;;;3.70;;
48987;SDS011;34799;51.440;-2.534;2022-09-20T04:37:26;5.90;;;3.80;;
48987;SDS011;34799;51.440;-2.534;2022-09-20T04:40:03;8.35;;;4.07;;
48987;SDS011;34799;51.440;-2.534;2022-09-20T04:48:50;7.65;;;4.10;;
48987;SDS011;34799;51.440;-2.534;2022-09-20T05:00:41;7.65;;;3.95;;
48987;SDS011;34799;51.440;-2.534;2022-09-20T05:03:44;7.75;;;3.85;;
48987;SDS011;34799;51.440;-2.534;2022-09-20T05:31:46;7.45;;;4.13;;
48987;SDS011;34799;51.440;-2.534;2022-09-20T05:34:32;13.45;;;4.47;;
48987;SDS011;34799;51.440;-2.534;2022-09-20T05:39:44;10.13;;;4.68;;
48987;SDS011;34799;51.440;-2.534;2022-09-20T05:52:12;9.25;;;4.50;;
48987;SDS011;34799;51.440;-2.534;2022-09-20T05:54:37;9.57;;;4.15;;
48987;SDS011;34799;51.440;-2.534;2022-09-20T06:00:23;10.82;;;4.13;;
48987;SDS011;34799;51.440;-2.534;2022-09-20T06:03:04;10.95;;;4.82;;
48987;SDS011;34799;51.440;-2.534;2022-09-20T06:05:45;12.30;;;4.28;;
48987;SDS011;34799;51.440;-2.534;2022-09-20T06:17:27;8.10;;;3.72;;
48987;SDS011;34799;51.440;-2.534;2022-09-20T06:22:54;10.05;;;4.53;;
48987;SDS011;34799;51.440;-2.534;2022-09-20T06:28:12;11.25;;;4.53;;
48987;SDS011;34799;51.440;-2.534;2022-09-20T06:30:50;11.38;;;4.68;;
48987;SDS011;34799;51.440;-2.534;2022-09-20T06:33:21;10.60;;;4.95;;
48987;SDS011;34799;51.440;-2.534;2022-09-20T06:39:15;11.85;;;4.32;;
48987;SDS011;34799;51.440;-2.534;2022-09-20T06:42:22;10.50;;;4.45;;
48987;SDS011;34799;51.440;-2.534;2022-09-20T06:44:52;10.15;;;4.28;;
48987;SDS011;34799;51.440;-2.534;2022-09-20T06:47:19;9.32;;;3.97;;
48987;SDS011;34799;51.440;-2.534;2022-09-20T06:49:48;12.57;;;4.85;;
48987;SDS011;34799;51.440;-2.534;2022-09-20T06:52:16;13.05;;;4.68;;
48987;SDS011;34799;51.440;-2.534;2022-09-20T06:54:46;11.80;;;5.68;;
48987;SDS011;34799;51.440;-2.534;2022-09-20T06:57:22;7.95;;;4.20;;
48987;SDS011;34799;51.440;-2.534;2022-09-20T07:00:02;9.48;;;4.20;;
48987;SDS011;34799;51.440;-2.534;2022-09-20T07:02:37;7.40;;;5.10;;
48987;SDS011;34799;51.440;-2.534;2022-09-20T07:05:04;16.42;;;4.65;;
48987;SDS011;34799;51.440;-2.534;2022-09-20T07:07:32;6.50;;;3.60;;
48987;SDS011;34799;51.440;-2.534;2022-09-20T07:10:00;13.63;;;3.40;;
48987;SDS011;34799;51.440;-2.534;2022-09-20T07:12:28;8.38;;;3.53;;
48987;SDS011;34799;51.440;-2.534;2022-09-20T07:14:58;7.25;;;3.25;;
48987;SDS011;34799;51.440;-2.534;2022-09-20T07:17:25;6.90;;;3.40;;
48987;SDS011;34799;51.440;-2.534;2022-09-20T07:19:52;5.68;;;3.72;;
48987;SDS011;34799;51.440;-2.534;2022-09-20T07:22:21;8.73;;;3.78;;
48987;SDS011;34799;51.440;-2.534;2022-09-20T07:24:49;11.77;;;3.95;;
48987;SDS011;34799;51.440;-2.534;2022-09-20T07:27:16;15.35;;;6.07;;
48987;SDS011;34799;51.440;-2.534;2022-09-20T07:29:43;8.02;;;3.30;;
48987;SDS011;34799;51.440;-2.534;2022-09-20T07:32:12;6.57;;;3.20;;
48987;SDS011;34799;51.440;-2.534;2022-09-20T07:34:40;9.40;;;5.80;;
48987;SDS011;34799;51.440;-2.534;2022-09-20T07:37:07;9.43;;;4.57;;
48987;SDS011;34799;51.440;-2.534;2022-09-20T07:39:35;6.22;;;3.25;;
48987;SDS011;34799;51.440;-2.534;2022-09-20T07:42:02;7.82;;;3.85;;
48987;SDS011;34799;51.440;-2.534;2022-09-20T07:44:31;9.02;;;3.50;;
48987;SDS011;34799;51.440;-2.534;2022-09-20T07:46:58;5.32;;;3.15;;
48987;SDS011;34799;51.440;-2.534;2022-09-20T07:49:27;6.97;;;3.83;;
48987;SDS011;34799;51.440;-2.534;2022-09-20T07:51:57;6.53;;;3.60;;
48987;SDS011;34799;51.440;-2.534;2022-09-20T07:54:24;8.70;;;3.58;;
48987;SDS011;34799;51.440;-2.534;2022-09-20T07:56:53;7.05;;;4.28;;
48987;SDS011;34799;51.440;-2.534;2022-09-20T07:59:20;8.23;;;3.83;;
48987;SDS011;34799;51.440;-2.534;2022-09-20T08:01:48;11.63;;;3.83;;
48987;SDS011;34799;51.440;-2.534;2022-09-20T08:04:15;6.78;;;3.72;;
48987;SDS011;34799;51.440;-2.534;2022-09-20T08:06:43;5.22;;;3.05;;
48987;SDS011;34799;51.440;-2.534;2022-09-20T08:09:11;8.30;;;4.75;;
48987;SDS011;34799;51.440;-2.534;2022-09-20T08:11:40;8.07;;;3.83;;
48987;SDS011;34799;51.440;-2.534;2022-09-20T08:14:12;9.82;;;3.85;;
48987;SDS011;34799;51.440;-2.534;2022-09-20T08:16:45;7.38;;;3.88;;
48987;SDS011;34799;51.440;-2.534;2022-09-20T08:19:14;6.30;;;3.38;;
48987;SDS011;34799;51.440;-2.534;2022-09-20T08:21:46;7.32;;;3.50;;
48987;SDS011;34799;51.440;-2.534;2022-09-20T08:24:16;7.78;;;4.32;;
48987;SDS011;34799;51.440;-2.534;2022-09-20T08:26:43;8.50;;;3.50;;
48987;SDS011;34799;51.440;-2.534;2022-09-20T08:29:11;6.22;;;3.45;;
48987;SDS011;34799;51.440;-2.534;2022-09-20T08:31:40;7.25;;;3.90;;
48987;SDS011;34799;51.440;-2.534;2022-09-20T08:34:09;6.53;;;3.20;;
48987;SDS011;34799;51.440;-2.534;2022-09-20T08:36:39;4.78;;;2.85;;
48987;SDS011;34799;51.440;-2.534;2022-09-20T08:39:08;7.38;;;3.50;;
48987;SDS011;34799;51.440;-2.534;2022-09-20T08:41:56;6.53;;;3.65;;
48987;SDS011;34799;51.440;-2.534;2022-09-20T08:44:46;11.75;;;4.28;;
48987;SDS011;34799;51.440;-2.534;2022-09-20T08:47:26;6.72;;;3.78;;
48987;SDS011;34799;51.440;-2.534;2022-09-20T08:49:56;7.68;;;4.45;;
48987;SDS011;34799;51.440;-2.534;2022-09-20T08:52:26;8.77;;;3.92;;
48987;SDS011;34799;51.440;-2.534;2022-09-20T08:55:01;7.40;;;4.00;;
48987;SDS011;34799;51.440;-2.534;2022-09-20T08:57:39;9.48;;;4.13;;
48987;SDS011;34799;51.440;-2.534;2022-09-20T09:00:09;9.57;;;4.05;;
48987;SDS011;34799;51.440;-2.534;2022-09-20T09:02:46;9.38;;;4.00;;
48987;SDS011;34799;51.440;-2.534;2022-09-20T09:05:30;23.15;;;4.65;;
48987;SDS011;34799;51.440;-2.534;2022-09-20T09:08:05;9.95;;;4.18;;
48987;SDS011;34799;51.440;-2.534;2022-09-20T09:11:04;8.82;;;3.95;;
48987;SDS011;34799;51.440;-2.534;2022-09-20T09:16:20;8.25;;;4.32;;
48987;SDS011;34799;51.440;-2.534;2022-09-20T09:18:53;7.90;;;3.67;;
48987;SDS011;34799;51.440;-2.534;2022-09-20T09:21:25;9.25;;;4.30;;
48987;SDS011;34799;51.440;-2.534;2022-09-20T09:24:05;7.22;;;4.05;;
48987;SDS011;34799;51.440;-2.534;2022-09-20T09:26:39;9.27;;;4.38;;
48987;SDS011;34799;51.440;-2.534;2022-09-20T09:31:46;8.30;;;4.55;;
48987;SDS011;34799;51.440;-2.534;2022-09-20T09:34:29;11.32;;;4.38;;
48987;SDS011;34799;51.440;-2.534;2022-09-20T09:36:59;7.15;;;3.75;;
48987;SDS011;34799;51.440;-2.534;2022-09-20T09:39:30;9.65;;;5.10;;
48987;SDS011;34799;51.440;-2.534;2022-09-20T09:41:59;8.43;;;4.22;;
48987;SDS011;34799;51.440;-2.534;2022-09-20T09:44:45;10.10;;;3.97;;
48987;SDS011;34799;51.440;-2.534;2022-09-20T09:47:26;7.50;;;3.90;;
48987;SDS011;34799;51.440;-2.534;2022-09-20T09:49:58;7.72;;;4.10;;
48987;SDS011;34799;51.440;-2.534;2022-09-20T09:52:29;7.32;;;3.38;;
48987;SDS011;34799;51.440;-2.534;2022-09-20T09:54:58;7.65;;;3.38;;
48987;SDS011;34799;51.440;-2.534;2022-09-20T09:57:48;7.03;;;3.58;;
48987;SDS011;34799;51.440;-2.534;2022-09-20T10:00:31;7.60;;;4.28;;
48987;SDS011;34799;51.440;-2.534;2022-09-20T10:03:06;7.75;;;3.47;;
48987;SDS011;34799;51.440;-2.534;2022-09-20T10:17:17;5.60;;;3.17;;
48987;SDS011;34799;51.440;-2.534;2022-09-20T10:19:57;6.47;;;3.38;;
48987;SDS011;34799;51.440;-2.534;2022-09-20T10:25:52;4.13;;;1.90;;
48987;SDS011;34799;51.440;-2.534;2022-09-20T10:31:18;1.17;;;0.60;;
48987;SDS011;34799;51.440;-2.534;2022-09-20T10:34:04;2.20;;;1.30;;
48987;SDS011;34799;51.440;-2.534;2022-09-20T10:36:57;3.17;;;1.40;;
48987;SDS011;34799;51.440;-2.534;2022-09-20T10:39:32;2.50;;;1.50;;
48987;SDS011;34799;51.440;-2.534;2022-09-20T10:45:15;3.33;;;1.70;;
48987;SDS011;34799;51.440;-2.534;2022-09-20T10:50:39;4.43;;;1.50;;
48987;SDS011;34799;51.440;-2.534;2022-09-20T10:53:21;4.57;;;2.42;;
48987;SDS011;34799;51.440;-2.534;2022-09-20T10:56:16;3.55;;;2.17;;
48987;SDS011;34799;51.440;-2.534;2022-09-20T10:59:41;4.00;;;2.38;;
48987;SDS011;34799;51.440;-2.534;2022-09-20T11:09:38;2.58;;;1.58;;
48987;SDS011;34799;51.440;-2.534;2022-09-20T11:12:14;8.15;;;2.00;;
48987;SDS011;34799;51.440;-2.534;2022-09-20T11:14:53;5.13;;;2.05;;
48987;SDS011;34799;51.440;-2.534;2022-09-20T11:17:42;7.10;;;2.83;;
48987;SDS011;34799;51.440;-2.534;2022-09-20T11:20:20;4.30;;;2.20;;
48987;SDS011;34799;51.440;-2.534;2022-09-20T11:23:04;4.15;;;2.20;;
48987;SDS011;34799;51.440;-2.534;2022-09-20T11:25:52;4.85;;;2.33;;
48987;SDS011;34799;51.440;-2.534;2022-09-20T11:28:35;5.32;;;2.25;;
48987;SDS011;34799;51.440;-2.534;2022-09-20T11:31:10;3.25;;;1.90;;
48987;SDS011;34799;51.440;-2.534;2022-09-20T11:33:47;5.97;;;2.22;;
48987;SDS011;34799;51.440;-2.534;2022-09-20T11:36:21;3.25;;;2.08;;
48987;SDS011;34799;51.440;-2.534;2022-09-20T11:39:22;3.87;;;1.10;;
48987;SDS011;34799;51.440;-2.534;2022-09-20T11:41:53;1.67;;;0.70;;
48987;SDS011;34799;51.440;-2.534;2022-09-20T11:44:21;3.75;;;0.93;;
48987;SDS011;34799;51.440;-2.534;2022-09-20T11:47:02;1.48;;;0.73;;
48987;SDS011;34799;51.440;-2.534;2022-09-20T11:56:14;1.60;;;0.82;;
48987;SDS011;34799;51.440;-2.534;2022-09-20T11:58:49;1.70;;;0.88;;
48987;SDS011;34799;51.440;-2.534;2022-09-20T12:01:37;3.35;;;1.13;;
48987;SDS011;34799;51.440;-2.534;2022-09-20T12:04:19;2.72;;;0.77;;
48987;SDS011;34799;51.440;-2.534;2022-09-20T12:09:43;4.35;;;1.30;;
48987;SDS011;34799;51.440;-2.534;2022-09-20T12:14:58;3.33;;;1.13;;
48987;SDS011;34799;51.440;-2.534;2022-09-20T12:28:34;2.65;;;0.60;;
48987;SDS011;34799;51.440;-2.534;2022-09-20T12:36:37;1.30;;;0.38;;
48987;SDS011;34799;51.440;-2.534;2022-09-20T12:58:04;1.08;;;0.35;;
48987;SDS011;34799;51.440;-2.534;2022-09-20T13:03:37;0.40;;;0.20;;
48987;SDS011;34799;51.440;-2.534;2022-09-20T13:08:41;1.33;;;0.30;;
48987;SDS011;34799;51.440;-2.534;2022-09-20T13:11:19;0.75;;;0.30;;
48987;SDS011;34799;51.440;-2.534;2022-09-20T13:14:01;1.05;;;0.30;;
48987;SDS011;34799;51.440;-2.534;2022-09-20T13:21:59;1.83;;;0.50;;
48987;SDS011;34799;51.440;-2.534;2022-09-20T13:24:41;2.33;;;0.60;;
48987;SDS011;34799;51.440;-2.534;2022-09-20T13:27:19;1.15;;;0.63;;
48987;SDS011;34799;51.440;-2.534;2022-09-20T13:30:07;1.95;;;0.80;;
48987;SDS011;34799;51.440;-2.534;2022-09-20T13:33:14;1.48;;;0.47;;
48987;SDS011;34799;51.440;-2.534;2022-09-20T13:35:51;2.38;;;0.70;;
48987;SDS011;34799;51.440;-2.534;2022-09-20T13:38:23;3.25;;;0.55;;
48987;SDS011;34799;51.440;-2.534;2022-09-20T13:41:00;2.50;;;0.98;;
48987;SDS011;34799;51.440;-2.534;2022-09-20T13:43:34;2.25;;;1.00;;
48987;SDS011;34799;51.440;-2.534;2022-09-20T13:46:07;1.48;;;0.90;;
48987;SDS011;34799;51.440;-2.534;2022-09-20T13:48:39;1.27;;;0.63;;
48987;SDS011;34799;51.440;-2.534;2022-09-20T13:51:16;1.33;;;0.52;;
48987;SDS011;34799;51.440;-2.534;2022-09-20T13:53:54;2.13;;;0.50;;
48987;SDS011;34799;51.440;-2.534;2022-09-20T13:56:51;1.33;;;0.50;;
48987;SDS011;34799;51.440;-2.534;2022-09-20T13:59:19;1.60;;;0.50;;
48987;SDS011;34799;51.440;-2.534;2022-09-20T14:01:51;3.35;;;0.50;;
48987;SDS011;34799;51.440;-2.534;2022-09-20T14:04:23;1.38;;;0.50;;
48987;SDS011;34799;51.440;-2.534;2022-09-20T14:06:53;2.20;;;0.80;;
48987;SDS011;34799;51.440;-2.534;2022-09-20T14:09:31;2.50;;;0.73;;
48987;SDS011;34799;51.440;-2.534;2022-09-20T14:12:02;1.02;;;0.52;;
48987;SDS011;34799;51.440;-2.534;2022-09-20T14:14:32;2.33;;;0.70;;
48987;SDS011;34799;51.440;-2.534;2022-09-20T14:17:00;1.58;;;0.77;;
48987;SDS011;34799;51.440;-2.534;2022-09-20T14:19:34;2.38;;;0.80;;
48987;SDS011;34799;51.440;-2.534;2022-09-20T14:22:06;1.33;;;0.80;;
48987;SDS011;34799;51.440;-2.534;2022-09-20T14:24:42;1.77;;;0.70;;
48987;SDS011;34799;51.440;-2.534;2022-09-20T14:27:32;1.52;;;0.52;;
48987;SDS011;34799;51.440;-2.534;2022-09-20T14:29:59;3.42;;;0.60;;
48987;SDS011;34799;51.440;-2.534;2022-09-20T14:32:30;2.08;;;0.60;;
48987;SDS011;34799;51.440;-2.534;2022-09-20T14:35:06;2.00;;;0.70;;
48987;SDS011;34799;51.440;-2.534;2022-09-20T14:38:04;1.95;;;1.00;;
48987;SDS011;34799;51.440;-2.534;2022-09-20T14:40:43;1.05;;;0.52;;
48987;SDS011;34799;51.440;-2.534;2022-09-20T14:43:24;3.05;;;0.63;;
48987;SDS011;34799;51.440;-2.534;2022-09-20T14:46:04;5.35;;;1.10;;
48987;SDS011;34799;51.440;-2.534;2022-09-20T14:48:37;3.78;;;0.80;;
48987;SDS011;34799;51.440;-2.534;2022-09-20T14:53:44;1.85;;;1.05;;
48987;SDS011;34799;51.440;-2.534;2022-09-20T14:56:16;3.20;;;1.00;;
48987;SDS011;34799;51.440;-2.534;2022-09-20T15:01:53;4.00;;;0.75;;
48987;SDS011;34799;51.440;-2.534;2022-09-20T15:04:23;3.03;;;0.98;;
48987;SDS011;34799;51.440;-2.534;2022-09-20T15:06:55;2.38;;;0.90;;
48987;SDS011;34799;51.440;-2.534;2022-09-20T15:09:25;2.72;;;1.08;;
48987;SDS011;34799;51.440;-2.534;2022-09-20T15:12:02;2.47;;;1.05;;
48987;SDS011;34799;51.440;-2.534;2022-09-20T15:14:32;3.50;;;1.15;;
48987;SDS011;34799;51.440;-2.534;2022-09-20T15:17:02;1.15;;;0.70;;
48987;SDS011;34799;51.440;-2.534;2022-09-20T15:19:31;2.45;;;1.08;;
48987;SDS011;34799;51.440;-2.534;2022-09-20T15:21:58;2.33;;;0.90;;
48987;SDS011;34799;51.440;-2.534;2022-09-20T15:24:25;2.50;;;0.73;;
48987;SDS011;34799;51.440;-2.534;2022-09-20T15:26:52;1.88;;;0.80;;
48987;SDS011;34799;51.440;-2.534;2022-09-20T15:29:19;2.83;;;0.90;;
48987;SDS011;34799;51.440;-2.534;2022-09-20T15:31:47;2.83;;;1.52;;
48987;SDS011;34799;51.440;-2.534;2022-09-20T15:34:15;2.25;;;1.20;;
48987;SDS011;34799;51.440;-2.534;2022-09-20T15:36:42;3.58;;;0.80;;
48987;SDS011;34799;51.440;-2.534;2022-09-20T15:39:10;2.00;;;0.70;;
48987;SDS011;34799;51.440;-2.534;2022-09-20T15:41:37;2.65;;;0.82;;
48987;SDS011;34799;51.440;-2.534;2022-09-20T15:44:06;2.40;;;0.80;;
48987;SDS011;34799;51.440;-2.534;2022-09-20T15:46:33;3.70;;;0.95;;
48987;SDS011;34799;51.440;-2.534;2022-09-20T15:49:00;3.88;;;0.70;;
48987;SDS011;34799;51.440;-2.534;2022-09-20T15:51:28;4.03;;;0.70;;
48987;SDS011;34799;51.440;-2.534;2022-09-20T15:53:58;4.55;;;1.10;;
48987;SDS011;34799;51.440;-2.534;2022-09-20T15:56:27;3.08;;;0.70;;
48987;SDS011;34799;51.440;-2.534;2022-09-20T15:58:59;4.15;;;0.80;;
48987;SDS011;34799;51.440;-2.534;2022-09-20T16:01:31;3.17;;;0.80;;
48987;SDS011;34799;51.440;-2.534;2022-09-20T16:04:03;4.50;;;1.15;;
48987;SDS011;34799;51.440;-2.534;2022-09-20T16:06:45;2.33;;;0.70;;
48987;SDS011;34799;51.440;-2.534;2022-09-20T16:09:14;1.85;;;0.85;;
48987;SDS011;34799;51.440;-2.534;2022-09-20T16:11:43;3.38;;;1.25;;
48987;SDS011;34799;51.440;-2.534;2022-09-20T16:14:11;1.88;;;0.90;;
48987;SDS011;34799;51.440;-2.534;2022-09-20T16:16:38;4.55;;;0.93;;
48987;SDS011;34799;51.440;-2.534;2022-09-20T16:19:07;1.65;;;0.70;;
48987;SDS011;34799;51.440;-2.534;2022-09-20T16:24:27;5.20;;;1.10;;
48987;SDS011;34799;51.440;-2.534;2022-09-20T16:26:56;3.85;;;1.08;;
48987;SDS011;34799;51.440;-2.534;2022-09-20T16:29:26;5.35;;;1.02;;
48987;SDS011;34799;51.440;-2.534;2022-09-20T16:31:55;3.38;;;0.90;;
48987;SDS011;34799;51.440;-2.534;2022-09-20T16:34:27;2.53;;;1.10;;
48987;SDS011;34799;51.440;-2.534;2022-09-20T16:37:00;3.67;;;0.90;;
48987;SDS011;34799;51.440;-2.534;2022-09-20T16:39:41;1.75;;;0.80;;
48987;SDS011;34799;51.440;-2.534;2022-09-20T16:42:09;3.72;;;0.90;;
48987;SDS011;34799;51.440;-2.534;2022-09-20T16:44:40;2.67;;;1.35;;
48987;SDS011;34799;51.440;-2.534;2022-09-20T16:47:12;1.67;;;0.90;;
48987;SDS011;34799;51.440;-2.534;2022-09-20T16:49:48;1.95;;;1.17;;
48987;SDS011;34799;51.440;-2.534;2022-09-20T16:52:18;3.08;;;1.27;;
48987;SDS011;34799;51.440;-2.534;2022-09-20T16:54:45;1.88;;;0.98;;
48987;SDS011;34799;51.440;-2.534;2022-09-20T16:57:12;1.33;;;0.70;;
48987;SDS011;34799;51.440;-2.534;2022-09-20T16:59:41;2.53;;;1.17;;
48987;SDS011;34799;51.440;-2.534;2022-09-20T17:02:09;4.80;;;1.02;;
48987;SDS011;34799;51.440;-2.534;2022-09-20T17:04:37;2.20;;;1.20;;
48987;SDS011;34799;51.440;-2.534;2022-09-20T17:07:05;1.83;;;0.90;;
48987;SDS011;34799;51.440;-2.534;2022-09-20T17:09:32;1.70;;;1.05;;
48987;SDS011;34799;51.440;-2.534;2022-09-20T17:12:00;3.15;;;1.15;;
48987;SDS011;34799;51.440;-2.534;2022-09-20T17:14:29;3.67;;;1.20;;
48987;SDS011;34799;51.440;-2.534;2022-09-20T17:16:56;3.85;;;1.10;;
48987;SDS011;34799;51.440;-2.534;2022-09-20T17:19:24;3.28;;;1.15;;
48987;SDS011;34799;51.440;-2.534;2022-09-20T17:21:52;2.03;;;1.00;;
48987;SDS011;34799;51.440;-2.534;2022-09-20T17:24:20;2.22;;;0.95;;
48987;SDS011;34799;51.440;-2.534;2022-09-20T17:26:48;2.15;;;0.70;;
48987;SDS011;34799;51.440;-2.534;2022-09-20T17:29:17;3.33;;;1.20;;
48987;SDS011;34799;51.440;-2.534;2022-09-20T17:31:47;2.45;;;0.93;;
48987;SDS011;34799;51.440;-2.534;2022-09-20T17:34:20;1.70;;;0.70;;
48987;SDS011;34799;51.440;-2.534;2022-09-20T17:36:47;1.95;;;1.00;;
48987;SDS011;34799;51.440;-2.534;2022-09-20T17:39:17;3.95;;;1.10;;
48987;SDS011;34799;51.440;-2.534;2022-09-20T17:41:45;1.88;;;0.95;;
48987;SDS011;34799;51.440;-2.534;2022-09-20T17:44:13;3.67;;;1.48;;
48987;SDS011;34799;51.440;-2.534;2022-09-20T17:46:42;1.83;;;0.93;;
48987;SDS011;34799;51.440;-2.534;2022-09-20T17:49:12;2.00;;;0.85;;
48987;SDS011;34799;51.440;-2.534;2022-09-20T17:51:42;2.53;;;0.88;;
48987;SDS011;34799;51.440;-2.534;2022-09-20T17:54:11;1.90;;;1.08;;
48987;SDS011;34799;51.440;-2.534;2022-09-20T17:56:43;6.28;;;1.30;;
48987;SDS011;34799;51.440;-2.534;2022-09-20T17:59:12;3.03;;;1.20;;
48987;SDS011;34799;51.440;-2.534;2022-09-20T18:01:42;3.15;;;1.02;;
48987;SDS011;34799;51.440;-2.534;2022-09-20T18:04:12;2.78;;;1.27;;
48987;SDS011;34799;51.440;-2.534;2022-09-20T18:06:46;3.42;;;1.38;;
48987;SDS011;34799;51.440;-2.534;2022-09-20T18:09:16;4.05;;;1.20;;
48987;SDS011;34799;51.440;-2.534;2022-09-20T18:11:48;3.05;;;1.40;;
48987;SDS011;34799;51.440;-2.534;2022-09-20T18:14:18;2.33;;;1.17;;
48987;SDS011;34799;51.440;-2.534;2022-09-20T18:16:50;4.80;;;1.65;;
48987;SDS011;34799;51.440;-2.534;2022-09-20T18:19:18;7.13;;;1.75;;
48987;SDS011;34799;51.440;-2.534;2022-09-20T18:21:49;2.72;;;1.30;;
48987;SDS011;34799;51.440;-2.534;2022-09-20T18:24:16;3.47;;;1.13;;
48987;SDS011;34799;51.440;-2.534;2022-09-20T18:26:43;3.17;;;1.30;;
48987;SDS011;34799;51.440;-2.534;2022-09-20T18:29:11;2.53;;;1.25;;
48987;SDS011;34799;51.440;-2.534;2022-09-20T18:31:41;2.63;;;1.20;;
48987;SDS011;34799;51.440;-2.534;2022-09-20T18:34:14;3.92;;;1.27;;
48987;SDS011;34799;51.440;-2.534;2022-09-20T18:36:44;5.05;;;1.20;;
48987;SDS011;34799;51.440;-2.534;2022-09-20T18:39:25;4.22;;;1.10;;
48987;SDS011;34799;51.440;-2.534;2022-09-20T18:42:01;3.10;;;1.38;;
48987;SDS011;34799;51.440;-2.534;2022-09-20T18:44:29;5.18;;;1.30;;
48987;SDS011;34799;51.440;-2.534;2022-09-20T18:46:57;3.40;;;1.45;;
48987;SDS011;34799;51.440;-2.534;2022-09-20T18:49:27;3.08;;;1.58;;
48987;SDS011;34799;51.440;-2.534;2022-09-20T18:51:55;4.22;;;1.58;;
48987;SDS011;34799;51.440;-2.534;2022-09-20T18:54:22;2.97;;;1.50;;
48987;SDS011;34799;51.440;-2.534;2022-09-20T18:56:49;5.35;;;1.52;;
48987;SDS011;34799;51.440;-2.534;2022-09-20T18:59:19;3.53;;;1.65;;
48987;SDS011;34799;51.440;-2.534;2022-09-20T19:04:53;3.13;;;1.55;;
48987;SDS011;34799;51.440;-2.534;2022-09-20T19:07:28;3.63;;;1.73;;
48987;SDS011;34799;51.440;-2.534;2022-09-20T19:10:11;6.55;;;2.00;;
48987;SDS011;34799;51.440;-2.534;2022-09-20T19:26:55;4.45;;;2.05;;
48987;SDS011;34799;51.440;-2.534;2022-09-20T19:29:23;4.95;;;2.33;;
48987;SDS011;34799;51.440;-2.534;2022-09-20T19:31:53;3.10;;;1.70;;
48987;SDS011;34799;51.440;-2.534;2022-09-20T19:34:24;5.70;;;2.53;;
48987;SDS011;34799;51.440;-2.534;2022-09-20T19:47:53;4.30;;;2.25;;
48987;SDS011;34799;51.440;-2.534;2022-09-20T19:50:44;5.15;;;2.08;;
48987;SDS011;34799;51.440;-2.534;2022-09-20T19:53:18;4.40;;;1.80;;
48987;SDS011;34799;51.440;-2.534;2022-09-20T19:55:53;4.35;;;1.70;;
48987;SDS011;34799;51.440;-2.534;2022-09-20T19:58:40;6.32;;;2.45;;
48987;SDS011;34799;51.440;-2.534;2022-09-20T20:01:08;6.28;;;2.20;;
48987;SDS011;34799;51.440;-2.534;2022-09-20T20:03:36;5.15;;;2.42;;
48987;SDS011;34799;51.440;-2.534;2022-09-20T20:09:05;7.55;;;2.85;;
48987;SDS011;34799;51.440;-2.534;2022-09-20T20:14:14;4.78;;;2.30;;
48987;SDS011;34799;51.440;-2.534;2022-09-20T20:16:54;5.38;;;2.40;;
48987;SDS011;34799;51.440;-2.534;2022-09-20T20:25:08;6.95;;;3.42;;
48987;SDS011;34799;51.440;-2.534;2022-09-20T20:30:18;7.40;;;3.00;;
48987;SDS011;34799;51.440;-2.534;2022-09-20T20:32:45;7.07;;;2.80;;
48987;SDS011;34799;51.440;-2.534;2022-09-20T20:35:13;5.28;;;3.30;;
48987;SDS011;34799;51.440;-2.534;2022-09-20T20:37:42;7.55;;;3.35;;
48987;SDS011;34799;51.440;-2.534;2022-09-20T20:40:09;7.80;;;3.20;;
48987;SDS011;34799;51.440;-2.534;2022-09-20T20:42:40;7.15;;;3.10;;
48987;SDS011;34799;51.440;-2.534;2022-09-20T20:45:08;9.88;;;4.05;;
48987;SDS011;34799;51.440;-2.534;2022-09-20T20:47:36;8.73;;;4.20;;
48987;SDS011;34799;51.440;-2.534;2022-09-20T20:50:08;7.43;;;4.13;;